Flight Track Log - Related Links

Times and Time Zones

All times are in EDT time to prevent confusion due to time zone crossing. See the JUS327 flight status page for this flight to view local times or setup timezone preferences in your user account.

Time Position Orientation Groundspeed Altitude Reporting Facility
EDT Latitude Longitude Course Direction KTS MPH feet Rate Location/Type
Mon 06:53:48 PM 42.2475 -83.5200 10° North 135 155 1,500  Level Cleveland Center
Mon 06:54:24 PM 42.2769 -83.5131 10° North 212 244 2,400 2,217 Climbing Cleveland Center
Mon 06:56:00 PM 42.1238 -83.5552 143° Southeast  Level Estimated
Mon 06:56:25 PM 42.2419 -83.6600 143° Southeast 275 316 7,300  Level Cleveland Center
Mon 06:57:24 PM 42.1700 -83.6986 202° Southwest 283 326 10,600 2,471 Climbing Cleveland Center
Mon 06:58:24 PM 42.0933 -83.6725 166° South 290 334 12,200 2,182 Climbing Cleveland Center
Mon 06:59:25 PM 42.0117 -83.6100 150° Southeast 299 344 15,000 2,826 Climbing Cleveland Center
Mon 07:00:25 PM 41.9200 -83.5331 148° Southeast 336 387 17,900 2,331 Climbing Cleveland Center
Mon 07:01:26 PM 41.8422 -83.4764 152° Southeast 346 398 19,700 1,672 Climbing Cleveland Center
Mon 07:02:27 PM 41.7450 -83.4386 164° South 356 410 21,300 1,881 Climbing Cleveland Center
Mon 07:03:24 PM 41.6397 -83.4783 196° South 362 417 23,400 2,034 Climbing Cleveland Center
Mon 07:04:25 PM 41.5383 -83.5322 202° Southwest 373 429 25,300 1,800 Climbing Cleveland Center
Mon 07:05:24 PM 41.4308 -83.5825 199° South 393 452 27,000 900 Climbing Cleveland Center
Mon 07:07:25 PM 41.2072 -83.6772 198° South 418 481 28,000 331 Climbing Cleveland Center
Mon 07:08:25 PM 41.0933 -83.7186 195° South 423 487 28,000  Level Cleveland Center
Mon 07:11:00 PM 40.7914 -83.8558 199° South 430 495 28,000  Level Indianapolis Center
Mon 07:12:02 PM 40.6800 -83.9194 203° Southwest 433 498 28,000  Level Indianapolis Center
Mon 07:14:06 PM 40.4539 -84.0292 200° South 432 497 28,000  Level Indianapolis Center
Mon 07:15:08 PM 40.3386 -84.0811 199° South 435 501 28,000  Level Indianapolis Center
Mon 07:16:09 PM 40.2239 -84.1356 200° South 436 502 28,000  Level Indianapolis Center
Mon 07:18:13 PM 39.9744 -84.2586 201° Southwest 441 507 28,000  Level Indianapolis Center
Mon 07:19:15 PM 39.8578 -84.3139 200° South 443 510 28,000  Level Indianapolis Center
Mon 07:20:17 PM 39.7408 -84.3692 200° South 445 512 28,000  Level Indianapolis Center
Mon 07:21:19 PM 39.6239 -84.4244 200° South 445 512 28,000 -732 Level Indianapolis Center
Mon 07:22:20 PM 39.5044 -84.4814 200° South 453 521 26,500 -1,459 Descending Indianapolis Center
Mon 07:24:24 PM 39.2508 -84.6025 200° South 441 507 23,500 -1,581 Descending Indianapolis Center
Mon 07:25:26 PM 39.1364 -84.6544 199° South 433 498 21,600 -1,887 Descending Indianapolis Center
Mon 07:26:28 PM 39.0233 -84.7072 200° South 431 496 19,600 -2,141 Descending Indianapolis Center
Mon 07:28:00 PM 38.9144 -84.7859 218° Southwest  Level FlightAware Approximate
Mon 07:28:31 PM 38.8469 -84.8717 218° Southwest 395 455 15,000  Level Indianapolis Center
Mon 07:29:33 PM 38.7567 -84.9178 202° Southwest 362 417 12,600 -2,293 Descending Indianapolis Center
Mon 07:30:34 PM 38.6533 -84.8703 160° South 328 377 10,300 -756 Descending Indianapolis Center
Mon 07:32:00 PM 38.6122 -85.0348 252° West  Level FlightAware Approximate
Mon 07:33:39 PM 38.4094 -84.7806 122° Southeast 295 339 9,500  Level Indianapolis Center
Mon 07:34:41 PM 38.3300 -84.7914 186° South 288 331 7,400 -1,951 Descending Indianapolis Center
Mon 07:35:42 PM 38.2503 -84.7867 177° South 287 330 5,500 -1,512 Descending Indianapolis Center
Mon 07:36:44 PM 38.1753 -84.7764 174° South 282 325 4,300 -1,210 Descending Indianapolis Center
Mon 07:37:46 PM 38.0997 -84.7597 170° South 259 298 3,000 -878 Descending Indianapolis Center
Mon 07:38:47 PM 38.0475 -84.7194 149° Southeast 236 272 2,500 -293 Descending Indianapolis Center
Mon 07:39:00 PM 38.1867 -84.9067 122° Southeast  Level FlightAware Approximate
Mon 07:39:49 PM 37.9989 -84.6903 155° Southeast 232 267 2,400  Level Indianapolis Center

Login

Don't have an account? Register now (free) for customized features, flight alerts, and more!